sensor_id;sensor_type;location;lat;lon;timestamp;temperature;humidity
31379;DHT22;61664;48.112;11.662;2022-08-03T00:01:38;22.50;55.10
31379;DHT22;61664;48.112;11.662;2022-08-03T00:04:07;22.40;55.10
31379;DHT22;61664;48.112;11.662;2022-08-03T00:06:35;22.40;55.20
31379;DHT22;61664;48.112;11.662;2022-08-03T00:09:06;22.40;55.30
31379;DHT22;61664;48.112;11.662;2022-08-03T00:11:33;22.30;55.20
31379;DHT22;61664;48.112;11.662;2022-08-03T00:14:01;22.30;55.30
31379;DHT22;61664;48.112;11.662;2022-08-03T00:16:32;22.20;55.40
31379;DHT22;61664;48.112;11.662;2022-08-03T00:19:00;22.20;55.40
31379;DHT22;61664;48.112;11.662;2022-08-03T00:21:28;22.20;55.40
31379;DHT22;61664;48.112;11.662;2022-08-03T00:23:55;22.10;55.40
31379;DHT22;61664;48.112;11.662;2022-08-03T00:26:22;22.10;55.50
31379;DHT22;61664;48.112;11.662;2022-08-03T00:28:49;22.00;55.50
31379;DHT22;61664;48.112;11.662;2022-08-03T00:31:16;22.00;55.60
31379;DHT22;61664;48.112;11.662;2022-08-03T00:34:03;22.00;55.80
31379;DHT22;61664;48.112;11.662;2022-08-03T00:36:31;22.00;56.00
31379;DHT22;61664;48.112;11.662;2022-08-03T00:38:58;21.90;55.90
31379;DHT22;61664;48.112;11.662;2022-08-03T00:41:25;21.90;56.00
31379;DHT22;61664;48.112;11.662;2022-08-03T00:43:52;21.90;55.90
31379;DHT22;61664;48.112;11.662;2022-08-03T00:46:19;21.90;56.00
31379;DHT22;61664;48.112;11.662;2022-08-03T00:48:51;21.90;56.00
31379;DHT22;61664;48.112;11.662;2022-08-03T00:51:19;21.80;56.00
31379;DHT22;61664;48.112;11.662;2022-08-03T00:53:48;21.80;56.00
31379;DHT22;61664;48.112;11.662;2022-08-03T00:56:16;21.80;56.00
31379;DHT22;61664;48.112;11.662;2022-08-03T00:58:44;21.80;56.10
31379;DHT22;61664;48.112;11.662;2022-08-03T01:01:12;21.80;56.10
31379;DHT22;61664;48.112;11.662;2022-08-03T01:03:41;21.70;56.10
31379;DHT22;61664;48.112;11.662;2022-08-03T01:06:51;21.70;56.20
31379;DHT22;61664;48.112;11.662;2022-08-03T01:15:18;21.50;56.40
31379;DHT22;61664;48.112;11.662;2022-08-03T01:17:52;21.40;56.40
31379;DHT22;61664;48.112;11.662;2022-08-03T01:20:24;21.40;56.70
31379;DHT22;61664;48.112;11.662;2022-08-03T01:23:05;21.30;56.80
31379;DHT22;61664;48.112;11.662;2022-08-03T01:32:27;21.30;57.30
31379;DHT22;61664;48.112;11.662;2022-08-03T01:35:25;21.20;57.00
31379;DHT22;61664;48.112;11.662;2022-08-03T01:38:05;21.10;57.10
31379;DHT22;61664;48.112;11.662;2022-08-03T01:40:36;21.10;57.30
31379;DHT22;61664;48.112;11.662;2022-08-03T01:43:08;21.10;57.30
31379;DHT22;61664;48.112;11.662;2022-08-03T01:45:40;21.10;57.40
31379;DHT22;61664;48.112;11.662;2022-08-03T01:48:10;21.10;57.50
31379;DHT22;61664;48.112;11.662;2022-08-03T01:50:41;21.10;57.60
31379;DHT22;61664;48.112;11.662;2022-08-03T01:53:13;21.00;57.60
31379;DHT22;61664;48.112;11.662;2022-08-03T01:55:44;21.00;57.60
31379;DHT22;61664;48.112;11.662;2022-08-03T01:58:15;21.00;57.60
31379;DHT22;61664;48.112;11.662;2022-08-03T02:00:46;20.90;57.60
31379;DHT22;61664;48.112;11.662;2022-08-03T02:03:16;20.90;57.60
31379;DHT22;61664;48.112;11.662;2022-08-03T02:05:46;20.90;57.70
31379;DHT22;61664;48.112;11.662;2022-08-03T02:08:32;20.90;57.60
31379;DHT22;61664;48.112;11.662;2022-08-03T02:11:00;20.90;57.70
31379;DHT22;61664;48.112;11.662;2022-08-03T02:13:28;20.80;57.70
31379;DHT22;61664;48.112;11.662;2022-08-03T02:15:57;20.70;57.70
31379;DHT22;61664;48.112;11.662;2022-08-03T02:18:25;20.70;57.90
31379;DHT22;61664;48.112;11.662;2022-08-03T02:20:55;20.70;58.00
31379;DHT22;61664;48.112;11.662;2022-08-03T02:23:22;20.60;58.10
31379;DHT22;61664;48.112;11.662;2022-08-03T02:25:52;20.60;58.20
31379;DHT22;61664;48.112;11.662;2022-08-03T02:28:34;20.60;58.20
31379;DHT22;61664;48.112;11.662;2022-08-03T02:31:07;20.60;58.30
31379;DHT22;61664;48.112;11.662;2022-08-03T02:33:42;20.60;58.40
31379;DHT22;61664;48.112;11.662;2022-08-03T02:36:15;20.60;58.50
31379;DHT22;61664;48.112;11.662;2022-08-03T02:38:46;20.60;58.50
31379;DHT22;61664;48.112;11.662;2022-08-03T02:41:20;20.50;58.50
31379;DHT22;61664;48.112;11.662;2022-08-03T02:43:53;20.50;58.60
31379;DHT22;61664;48.112;11.662;2022-08-03T02:46:35;20.50;58.60
31379;DHT22;61664;48.112;11.662;2022-08-03T02:49:05;20.50;58.70
31379;DHT22;61664;48.112;11.662;2022-08-03T02:51:54;20.50;58.80
31379;DHT22;61664;48.112;11.662;2022-08-03T02:54:23;20.50;58.80
31379;DHT22;61664;48.112;11.662;2022-08-03T02:56:55;20.50;58.90
31379;DHT22;61664;48.112;11.662;2022-08-03T02:59:24;20.50;58.90
31379;DHT22;61664;48.112;11.662;2022-08-03T03:01:54;20.40;58.90
31379;DHT22;61664;48.112;11.662;2022-08-03T03:04:21;20.40;58.80
31379;DHT22;61664;48.112;11.662;2022-08-03T03:06:59;20.40;58.90
31379;DHT22;61664;48.112;11.662;2022-08-03T03:09:31;20.40;58.90
31379;DHT22;61664;48.112;11.662;2022-08-03T03:12:09;20.30;59.00
31379;DHT22;61664;48.112;11.662;2022-08-03T03:14:40;20.30;59.00
31379;DHT22;61664;48.112;11.662;2022-08-03T03:17:09;20.30;58.90
31379;DHT22;61664;48.112;11.662;2022-08-03T03:19:38;20.30;59.10
31379;DHT22;61664;48.112;11.662;2022-08-03T03:22:07;20.20;59.00
31379;DHT22;61664;48.112;11.662;2022-08-03T03:24:36;20.20;59.20
31379;DHT22;61664;48.112;11.662;2022-08-03T03:27:05;20.20;59.30
31379;DHT22;61664;48.112;11.662;2022-08-03T03:29:34;20.10;59.30
31379;DHT22;61664;48.112;11.662;2022-08-03T03:32:05;20.10;59.30
31379;DHT22;61664;48.112;11.662;2022-08-03T03:34:38;20.10;59.30
31379;DHT22;61664;48.112;11.662;2022-08-03T03:37:09;20.10;59.40
31379;DHT22;61664;48.112;11.662;2022-08-03T03:39:36;20.10;59.50
31379;DHT22;61664;48.112;11.662;2022-08-03T03:42:03;20.10;59.60
31379;DHT22;61664;48.112;11.662;2022-08-03T03:44:31;20.00;59.50
31379;DHT22;61664;48.112;11.662;2022-08-03T03:46:58;20.00;59.50
31379;DHT22;61664;48.112;11.662;2022-08-03T03:49:25;20.00;59.60
31379;DHT22;61664;48.112;11.662;2022-08-03T03:51:53;20.00;59.60
31379;DHT22;61664;48.112;11.662;2022-08-03T03:54:21;19.90;59.60
31379;DHT22;61664;48.112;11.662;2022-08-03T03:56:51;19.90;59.70
31379;DHT22;61664;48.112;11.662;2022-08-03T03:59:18;19.90;59.70
31379;DHT22;61664;48.112;11.662;2022-08-03T04:01:45;19.90;59.80
31379;DHT22;61664;48.112;11.662;2022-08-03T04:04:23;19.80;59.90
31379;DHT22;61664;48.112;11.662;2022-08-03T04:07:09;19.80;59.90
31379;DHT22;61664;48.112;11.662;2022-08-03T04:09:55;19.80;60.00
31379;DHT22;61664;48.112;11.662;2022-08-03T04:12:42;19.80;60.10
31379;DHT22;61664;48.112;11.662;2022-08-03T04:15:18;19.70;60.10
31379;DHT22;61664;48.112;11.662;2022-08-03T04:17:48;19.70;60.20
31379;DHT22;61664;48.112;11.662;2022-08-03T04:20:19;19.70;60.30
31379;DHT22;61664;48.112;11.662;2022-08-03T04:22:50;19.70;60.40
31379;DHT22;61664;48.112;11.662;2022-08-03T04:25:20;19.70;60.60
31379;DHT22;61664;48.112;11.662;2022-08-03T04:27:51;19.80;60.60
31379;DHT22;61664;48.112;11.662;2022-08-03T04:30:44;19.80;60.70
31379;DHT22;61664;48.112;11.662;2022-08-03T04:33:18;19.80;60.70
31379;DHT22;61664;48.112;11.662;2022-08-03T04:35:49;19.80;60.80
31379;DHT22;61664;48.112;11.662;2022-08-03T04:38:33;19.90;60.90
31379;DHT22;61664;48.112;11.662;2022-08-03T04:41:05;20.00;61.00
31379;DHT22;61664;48.112;11.662;2022-08-03T04:43:33;20.00;60.90
31379;DHT22;61664;48.112;11.662;2022-08-03T04:46:02;20.10;60.80
31379;DHT22;61664;48.112;11.662;2022-08-03T04:48:30;20.10;60.70
31379;DHT22;61664;48.112;11.662;2022-08-03T04:50:57;20.10;60.80
31379;DHT22;61664;48.112;11.662;2022-08-03T04:53:26;20.20;60.90
31379;DHT22;61664;48.112;11.662;2022-08-03T04:55:53;20.20;61.00
31379;DHT22;61664;48.112;11.662;2022-08-03T04:58:20;20.30;61.20
31379;DHT22;61664;48.112;11.662;2022-08-03T05:00:46;20.40;61.20
31379;DHT22;61664;48.112;11.662;2022-08-03T05:03:16;20.50;61.10
31379;DHT22;61664;48.112;11.662;2022-08-03T05:05:51;20.50;60.90
31379;DHT22;61664;48.112;11.662;2022-08-03T05:08:27;20.60;60.80
31379;DHT22;61664;48.112;11.662;2022-08-03T05:10:55;20.70;60.70
31379;DHT22;61664;48.112;11.662;2022-08-03T05:13:25;20.70;60.70
31379;DHT22;61664;48.112;11.662;2022-08-03T05:15:52;20.80;60.70
31379;DHT22;61664;48.112;11.662;2022-08-03T05:18:19;20.90;60.70
31379;DHT22;61664;48.112;11.662;2022-08-03T05:20:46;21.00;60.60
31379;DHT22;61664;48.112;11.662;2022-08-03T05:23:17;21.00;60.30
31379;DHT22;61664;48.112;11.662;2022-08-03T05:25:44;21.10;60.20
31379;DHT22;61664;48.112;11.662;2022-08-03T05:28:15;21.20;60.40
31379;DHT22;61664;48.112;11.662;2022-08-03T05:30:42;21.30;60.30
31379;DHT22;61664;48.112;11.662;2022-08-03T05:33:11;21.30;60.40
31379;DHT22;61664;48.112;11.662;2022-08-03T05:35:39;21.40;60.20
31379;DHT22;61664;48.112;11.662;2022-08-03T05:38:29;21.50;60.40
31379;DHT22;61664;48.112;11.662;2022-08-03T05:41:01;21.70;60.30
31379;DHT22;61664;48.112;11.662;2022-08-03T05:43:50;21.70;60.00
31379;DHT22;61664;48.112;11.662;2022-08-03T05:46:19;21.80;60.00
31379;DHT22;61664;48.112;11.662;2022-08-03T05:48:47;21.90;60.00
31379;DHT22;61664;48.112;11.662;2022-08-03T05:51:15;22.00;60.00
31379;DHT22;61664;48.112;11.662;2022-08-03T05:53:42;22.10;59.80
31379;DHT22;61664;48.112;11.662;2022-08-03T05:56:10;22.20;59.60
31379;DHT22;61664;48.112;11.662;2022-08-03T05:58:50;22.30;59.50
31379;DHT22;61664;48.112;11.662;2022-08-03T06:01:19;22.40;58.40
31379;DHT22;61664;48.112;11.662;2022-08-03T06:03:50;22.50;59.10
31379;DHT22;61664;48.112;11.662;2022-08-03T06:06:17;22.60;59.00
31379;DHT22;61664;48.112;11.662;2022-08-03T06:08:45;22.70;59.00
31379;DHT22;61664;48.112;11.662;2022-08-03T06:11:14;22.80;58.80
31379;DHT22;61664;48.112;11.662;2022-08-03T06:13:42;22.90;58.70
31379;DHT22;61664;48.112;11.662;2022-08-03T06:16:10;23.00;59.10
31379;DHT22;61664;48.112;11.662;2022-08-03T06:18:37;23.10;58.60
31379;DHT22;61664;48.112;11.662;2022-08-03T06:21:06;23.20;58.20
31379;DHT22;61664;48.112;11.662;2022-08-03T06:23:40;23.30;58.10
31379;DHT22;61664;48.112;11.662;2022-08-03T06:26:22;23.40;58.10
31379;DHT22;61664;48.112;11.662;2022-08-03T06:28:50;23.50;58.00
31379;DHT22;61664;48.112;11.662;2022-08-03T06:31:21;23.60;57.70
31379;DHT22;61664;48.112;11.662;2022-08-03T06:33:58;23.70;57.60
31379;DHT22;61664;48.112;11.662;2022-08-03T06:36:44;23.80;57.30
31379;DHT22;61664;48.112;11.662;2022-08-03T06:39:14;23.90;57.10
31379;DHT22;61664;48.112;11.662;2022-08-03T06:41:40;24.00;57.10
31379;DHT22;61664;48.112;11.662;2022-08-03T06:44:11;24.10;57.20
31379;DHT22;61664;48.112;11.662;2022-08-03T06:46:38;24.20;57.10
31379;DHT22;61664;48.112;11.662;2022-08-03T06:49:06;24.30;57.00
31379;DHT22;61664;48.112;11.662;2022-08-03T06:51:33;24.40;56.50
31379;DHT22;61664;48.112;11.662;2022-08-03T06:54:20;24.50;56.60
31379;DHT22;61664;48.112;11.662;2022-08-03T06:56:47;24.60;56.30
31379;DHT22;61664;48.112;11.662;2022-08-03T06:59:14;24.70;56.30
31379;DHT22;61664;48.112;11.662;2022-08-03T07:02:01;24.80;56.30
31379;DHT22;61664;48.112;11.662;2022-08-03T07:04:28;25.00;56.40
31379;DHT22;61664;48.112;11.662;2022-08-03T07:06:55;25.10;55.90
31379;DHT22;61664;48.112;11.662;2022-08-03T07:09:22;25.20;55.70
31379;DHT22;61664;48.112;11.662;2022-08-03T07:11:49;25.40;56.10
31379;DHT22;61664;48.112;11.662;2022-08-03T07:14:16;25.50;55.60
31379;DHT22;61664;48.112;11.662;2022-08-03T07:16:43;25.60;55.30
31379;DHT22;61664;48.112;11.662;2022-08-03T07:19:10;25.70;55.00
31379;DHT22;61664;48.112;11.662;2022-08-03T07:21:37;25.80;55.00
31379;DHT22;61664;48.112;11.662;2022-08-03T07:24:05;25.90;54.70
31379;DHT22;61664;48.112;11.662;2022-08-03T07:26:32;26.10;54.60
31379;DHT22;61664;48.112;11.662;2022-08-03T07:28:59;26.20;54.70
31379;DHT22;61664;48.112;11.662;2022-08-03T07:31:27;26.30;54.60
31379;DHT22;61664;48.112;11.662;2022-08-03T07:34:00;26.50;54.60
31379;DHT22;61664;48.112;11.662;2022-08-03T07:36:26;26.60;54.20
31379;DHT22;61664;48.112;11.662;2022-08-03T07:38:53;26.70;54.30
31379;DHT22;61664;48.112;11.662;2022-08-03T07:41:20;26.90;53.90
31379;DHT22;61664;48.112;11.662;2022-08-03T07:43:47;27.00;53.70
31379;DHT22;61664;48.112;11.662;2022-08-03T07:46:14;27.20;53.40
31379;DHT22;61664;48.112;11.662;2022-08-03T07:48:41;27.30;53.10
31379;DHT22;61664;48.112;11.662;2022-08-03T07:51:08;27.50;52.90
31379;DHT22;61664;48.112;11.662;2022-08-03T07:53:35;27.60;52.70
31379;DHT22;61664;48.112;11.662;2022-08-03T07:56:12;27.80;52.50
31379;DHT22;61664;48.112;11.662;2022-08-03T07:58:39;27.90;52.50
31379;DHT22;61664;48.112;11.662;2022-08-03T08:01:06;28.10;52.40
31379;DHT22;61664;48.112;11.662;2022-08-03T08:03:34;28.20;52.20
31379;DHT22;61664;48.112;11.662;2022-08-03T08:06:19;28.40;51.90
31379;DHT22;61664;48.112;11.662;2022-08-03T08:08:47;28.50;51.70
31379;DHT22;61664;48.112;11.662;2022-08-03T08:11:14;28.70;51.30
31379;DHT22;61664;48.112;11.662;2022-08-03T08:13:41;28.90;51.00
31379;DHT22;61664;48.112;11.662;2022-08-03T08:16:08;29.00;50.50
31379;DHT22;61664;48.112;11.662;2022-08-03T08:18:35;29.20;50.60
31379;DHT22;61664;48.112;11.662;2022-08-03T08:21:02;29.30;50.10
31379;DHT22;61664;48.112;11.662;2022-08-03T08:23:29;29.50;50.00
31379;DHT22;61664;48.112;11.662;2022-08-03T08:26:09;29.60;49.60
31379;DHT22;61664;48.112;11.662;2022-08-03T08:28:36;29.80;49.20
31379;DHT22;61664;48.112;11.662;2022-08-03T08:31:03;29.90;48.80
31379;DHT22;61664;48.112;11.662;2022-08-03T08:33:30;30.10;48.50
31379;DHT22;61664;48.112;11.662;2022-08-03T08:36:18;30.30;48.30
31379;DHT22;61664;48.112;11.662;2022-08-03T08:38:46;30.50;48.40
31379;DHT22;61664;48.112;11.662;2022-08-03T08:41:14;30.70;48.90
31379;DHT22;61664;48.112;11.662;2022-08-03T08:43:42;31.00;48.80
31379;DHT22;61664;48.112;11.662;2022-08-03T08:46:13;31.30;48.90
31379;DHT22;61664;48.112;11.662;2022-08-03T08:48:50;31.70;46.00
31379;DHT22;61664;48.112;11.662;2022-08-03T08:51:20;32.20;47.70
31379;DHT22;61664;48.112;11.662;2022-08-03T08:53:52;32.70;47.00
31379;DHT22;61664;48.112;11.662;2022-08-03T08:56:22;33.20;44.20
31379;DHT22;61664;48.112;11.662;2022-08-03T08:58:53;33.70;45.40
31379;DHT22;61664;48.112;11.662;2022-08-03T09:01:25;34.20;45.30
31379;DHT22;61664;48.112;11.662;2022-08-03T09:03:53;34.70;44.50
31379;DHT22;61664;48.112;11.662;2022-08-03T09:06:21;35.10;43.60
31379;DHT22;61664;48.112;11.662;2022-08-03T09:08:49;35.50;42.80
31379;DHT22;61664;48.112;11.662;2022-08-03T09:11:20;35.90;42.30
31379;DHT22;61664;48.112;11.662;2022-08-03T09:14:09;36.20;39.30
31379;DHT22;61664;48.112;11.662;2022-08-03T09:16:59;36.50;41.20
31379;DHT22;61664;48.112;11.662;2022-08-03T09:19:29;36.80;40.60
31379;DHT22;61664;48.112;11.662;2022-08-03T09:24:55;37.40;38.30
31379;DHT22;61664;48.112;11.662;2022-08-03T09:27:48;37.70;36.60
31379;DHT22;61664;48.112;11.662;2022-08-03T09:30:17;37.90;39.20
31379;DHT22;61664;48.112;11.662;2022-08-03T09:33:05;38.10;38.40
31379;DHT22;61664;48.112;11.662;2022-08-03T09:35:41;38.30;38.40
31379;DHT22;61664;48.112;11.662;2022-08-03T09:38:24;38.60;35.20
31379;DHT22;61664;48.112;11.662;2022-08-03T09:40:52;38.80;35.40
31379;DHT22;61664;48.112;11.662;2022-08-03T09:43:26;39.10;37.00
31379;DHT22;61664;48.112;11.662;2022-08-03T09:46:02;39.40;37.00
31379;DHT22;61664;48.112;11.662;2022-08-03T09:48:31;39.70;33.70
31379;DHT22;61664;48.112;11.662;2022-08-03T09:51:03;40.10;35.60
31379;DHT22;61664;48.112;11.662;2022-08-03T09:53:50;40.30;35.30
31379;DHT22;61664;48.112;11.662;2022-08-03T09:59:11;40.80;32.70
31379;DHT22;61664;48.112;11.662;2022-08-03T10:01:39;41.10;34.50
31379;DHT22;61664;48.112;11.662;2022-08-03T10:04:11;41.30;34.40
31379;DHT22;61664;48.112;11.662;2022-08-03T10:06:40;41.50;31.80
31379;DHT22;61664;48.112;11.662;2022-08-03T10:09:11;41.70;33.70
31379;DHT22;61664;48.112;11.662;2022-08-03T10:11:41;42.00;32.40
31379;DHT22;61664;48.112;11.662;2022-08-03T10:14:10;42.30;32.80
31379;DHT22;61664;48.112;11.662;2022-08-03T10:16:46;42.50;32.30
31379;DHT22;61664;48.112;11.662;2022-08-03T10:19:13;42.80;32.10
31379;DHT22;61664;48.112;11.662;2022-08-03T10:21:47;43.00;31.70
31379;DHT22;61664;48.112;11.662;2022-08-03T10:24:23;43.30;30.40
31379;DHT22;61664;48.112;11.662;2022-08-03T10:27:30;43.50;30.90
31379;DHT22;61664;48.112;11.662;2022-08-03T10:29:54;43.70;30.80
31379;DHT22;61664;48.112;11.662;2022-08-03T10:32:30;43.80;29.40
31379;DHT22;61664;48.112;11.662;2022-08-03T10:35:11;43.80;28.70
31379;DHT22;61664;48.112;11.662;2022-08-03T10:38:07;43.80;28.60
31379;DHT22;61664;48.112;11.662;2022-08-03T10:40:39;43.80;29.30
31379;DHT22;61664;48.112;11.662;2022-08-03T10:43:27;43.80;30.00
31379;DHT22;61664;48.112;11.662;2022-08-03T10:46:04;43.80;28.60
31379;DHT22;61664;48.112;11.662;2022-08-03T10:48:34;43.90;29.20
31379;DHT22;61664;48.112;11.662;2022-08-03T10:51:02;43.90;29.30
31379;DHT22;61664;48.112;11.662;2022-08-03T10:53:39;43.80;29.70
31379;DHT22;61664;48.112;11.662;2022-08-03T11:02:14;44.00;28.80
31379;DHT22;61664;48.112;11.662;2022-08-03T11:04:42;44.10;28.40
31379;DHT22;61664;48.112;11.662;2022-08-03T11:07:17;44.30;28.80
31379;DHT22;61664;48.112;11.662;2022-08-03T11:09:53;44.30;27.60
31379;DHT22;61664;48.112;11.662;2022-08-03T11:12:27;44.40;27.50
31379;DHT22;61664;48.112;11.662;2022-08-03T11:15:07;44.50;27.60
31379;DHT22;61664;48.112;11.662;2022-08-03T11:17:35;44.70;27.10
31379;DHT22;61664;48.112;11.662;2022-08-03T11:20:48;44.80;28.20
31379;DHT22;61664;48.112;11.662;2022-08-03T11:23:18;44.90;26.60
31379;DHT22;61664;48.112;11.662;2022-08-03T11:26:23;44.90;27.60
31379;DHT22;61664;48.112;11.662;2022-08-03T11:28:50;44.80;28.20
31379;DHT22;61664;48.112;11.662;2022-08-03T11:34:16;44.30;26.00
31379;DHT22;61664;48.112;11.662;2022-08-03T11:37:17;43.90;26.60
31379;DHT22;61664;48.112;11.662;2022-08-03T11:39:51;43.20;26.00
31379;DHT22;61664;48.112;11.662;2022-08-03T11:44:51;41.80;26.00
31379;DHT22;61664;48.112;11.662;2022-08-03T11:47:20;41.20;26.20
31379;DHT22;61664;48.112;11.662;2022-08-03T11:49:50;40.50;27.00
31379;DHT22;61664;48.112;11.662;2022-08-03T11:52:19;39.90;26.60
31379;DHT22;61664;48.112;11.662;2022-08-03T11:54:54;39.40;26.60
31379;DHT22;61664;48.112;11.662;2022-08-03T11:57:30;38.80;26.70
31379;DHT22;61664;48.112;11.662;2022-08-03T12:00:22;38.20;26.10
31379;DHT22;61664;48.112;11.662;2022-08-03T12:03:09;37.70;27.00
31379;DHT22;61664;48.112;11.662;2022-08-03T12:08:32;36.80;27.40
31379;DHT22;61664;48.112;11.662;2022-08-03T12:11:01;36.40;27.10
31379;DHT22;61664;48.112;11.662;2022-08-03T12:13:50;36.10;28.40
31379;DHT22;61664;48.112;11.662;2022-08-03T12:16:37;35.90;27.50
31379;DHT22;61664;48.112;11.662;2022-08-03T12:19:04;35.70;28.20
31379;DHT22;61664;48.112;11.662;2022-08-03T12:21:34;35.50;27.70
31379;DHT22;61664;48.112;11.662;2022-08-03T12:24:23;35.30;28.00
31379;DHT22;61664;48.112;11.662;2022-08-03T12:26:50;35.20;28.50
31379;DHT22;61664;48.112;11.662;2022-08-03T12:29:25;35.10;28.40
31379;DHT22;61664;48.112;11.662;2022-08-03T12:31:52;35.00;28.60
31379;DHT22;61664;48.112;11.662;2022-08-03T12:34:21;35.00;28.60
31379;DHT22;61664;48.112;11.662;2022-08-03T12:36:53;35.00;28.90
31379;DHT22;61664;48.112;11.662;2022-08-03T12:39:23;34.90;28.20
31379;DHT22;61664;48.112;11.662;2022-08-03T12:41:53;34.90;28.90
31379;DHT22;61664;48.112;11.662;2022-08-03T12:44:34;34.90;28.80
31379;DHT22;61664;48.112;11.662;2022-08-03T12:47:03;34.80;27.80
31379;DHT22;61664;48.112;11.662;2022-08-03T12:49:45;34.90;28.40
31379;DHT22;61664;48.112;11.662;2022-08-03T12:52:12;34.90;27.40
31379;DHT22;61664;48.112;11.662;2022-08-03T12:54:40;34.90;28.40
31379;DHT22;61664;48.112;11.662;2022-08-03T12:57:11;34.90;28.70
31379;DHT22;61664;48.112;11.662;2022-08-03T12:59:43;34.90;28.30
31379;DHT22;61664;48.112;11.662;2022-08-03T13:02:24;34.90;28.60
31379;DHT22;61664;48.112;11.662;2022-08-03T13:04:52;34.90;27.70
31379;DHT22;61664;48.112;11.662;2022-08-03T13:07:21;34.80;28.80
31379;DHT22;61664;48.112;11.662;2022-08-03T13:09:51;34.90;29.00
31379;DHT22;61664;48.112;11.662;2022-08-03T13:12:23;34.80;28.90
31379;DHT22;61664;48.112;11.662;2022-08-03T13:14:54;34.80;28.50
31379;DHT22;61664;48.112;11.662;2022-08-03T13:17:23;34.70;28.60
31379;DHT22;61664;48.112;11.662;2022-08-03T13:19:51;34.70;29.10
31379;DHT22;61664;48.112;11.662;2022-08-03T13:22:26;34.70;28.90
31379;DHT22;61664;48.112;11.662;2022-08-03T13:24:56;34.70;28.10
31379;DHT22;61664;48.112;11.662;2022-08-03T13:27:24;34.80;29.20
31379;DHT22;61664;48.112;11.662;2022-08-03T13:30:12;34.80;29.20
31379;DHT22;61664;48.112;11.662;2022-08-03T13:32:50;35.00;29.40
31379;DHT22;61664;48.112;11.662;2022-08-03T13:35:17;35.10;29.30
31379;DHT22;61664;48.112;11.662;2022-08-03T13:37:44;35.30;28.80
31379;DHT22;61664;48.112;11.662;2022-08-03T13:40:14;35.50;29.10
31379;DHT22;61664;48.112;11.662;2022-08-03T13:42:42;35.60;29.00
31379;DHT22;61664;48.112;11.662;2022-08-03T13:45:09;35.90;29.30
31379;DHT22;61664;48.112;11.662;2022-08-03T13:47:36;36.20;29.10
31379;DHT22;61664;48.112;11.662;2022-08-03T13:50:04;36.70;29.60
31379;DHT22;61664;48.112;11.662;2022-08-03T13:52:32;37.40;29.90
31379;DHT22;61664;48.112;11.662;2022-08-03T13:55:01;38.20;30.40
31379;DHT22;61664;48.112;11.662;2022-08-03T13:57:33;39.10;30.00
31379;DHT22;61664;48.112;11.662;2022-08-03T14:00:20;39.80;29.50
31379;DHT22;61664;48.112;11.662;2022-08-03T14:02:56;40.50;28.70
31379;DHT22;61664;48.112;11.662;2022-08-03T14:05:33;41.10;28.20
31379;DHT22;61664;48.112;11.662;2022-08-03T14:08:01;41.40;27.50
31379;DHT22;61664;48.112;11.662;2022-08-03T14:10:34;41.80;27.90
31379;DHT22;61664;48.112;11.662;2022-08-03T14:13:04;42.20;27.40
31379;DHT22;61664;48.112;11.662;2022-08-03T14:15:31;42.70;27.40
31379;DHT22;61664;48.112;11.662;2022-08-03T14:18:08;43.20;27.20
31379;DHT22;61664;48.112;11.662;2022-08-03T14:20:53;43.60;26.80
31379;DHT22;61664;48.112;11.662;2022-08-03T14:23:23;43.90;28.60
31379;DHT22;61664;48.112;11.662;2022-08-03T14:25:51;44.30;27.60
31379;DHT22;61664;48.112;11.662;2022-08-03T14:28:22;44.70;27.80
31379;DHT22;61664;48.112;11.662;2022-08-03T14:30:51;45.40;26.90
31379;DHT22;61664;48.112;11.662;2022-08-03T14:33:19;46.10;27.90
31379;DHT22;61664;48.112;11.662;2022-08-03T14:35:47;46.70;29.10
31379;DHT22;61664;48.112;11.662;2022-08-03T14:38:15;47.40;28.10
31379;DHT22;61664;48.112;11.662;2022-08-03T14:40:42;48.00;27.50
31379;DHT22;61664;48.112;11.662;2022-08-03T14:43:10;48.60;27.10
31379;DHT22;61664;48.112;11.662;2022-08-03T14:45:38;49.00;26.20
31379;DHT22;61664;48.112;11.662;2022-08-03T14:48:05;49.30;25.90
31379;DHT22;61664;48.112;11.662;2022-08-03T14:50:52;49.60;25.70
31379;DHT22;61664;48.112;11.662;2022-08-03T14:53:20;49.90;25.50
31379;DHT22;61664;48.112;11.662;2022-08-03T14:55:48;50.00;25.50
31379;DHT22;61664;48.112;11.662;2022-08-03T14:58:18;50.30;25.40
31379;DHT22;61664;48.112;11.662;2022-08-03T15:00:49;50.60;25.10
31379;DHT22;61664;48.112;11.662;2022-08-03T15:03:18;50.80;25.10
31379;DHT22;61664;48.112;11.662;2022-08-03T15:05:50;51.10;24.70
31379;DHT22;61664;48.112;11.662;2022-08-03T15:08:18;51.20;24.80
31379;DHT22;61664;48.112;11.662;2022-08-03T15:10:46;51.40;24.40
31379;DHT22;61664;48.112;11.662;2022-08-03T15:13:15;51.40;24.70
31379;DHT22;61664;48.112;11.662;2022-08-03T15:15:42;51.60;25.40
31379;DHT22;61664;48.112;11.662;2022-08-03T15:18:09;51.70;24.90
31379;DHT22;61664;48.112;11.662;2022-08-03T15:20:36;51.80;24.30
31379;DHT22;61664;48.112;11.662;2022-08-03T15:23:13;51.90;24.00
31379;DHT22;61664;48.112;11.662;2022-08-03T15:25:42;51.90;23.80
31379;DHT22;61664;48.112;11.662;2022-08-03T15:28:30;51.80;23.50
31379;DHT22;61664;48.112;11.662;2022-08-03T15:30:58;51.40;23.40
31379;DHT22;61664;48.112;11.662;2022-08-03T15:33:25;51.20;23.50
31379;DHT22;61664;48.112;11.662;2022-08-03T15:35:52;51.00;23.30
31379;DHT22;61664;48.112;11.662;2022-08-03T15:38:20;50.80;23.10
31379;DHT22;61664;48.112;11.662;2022-08-03T15:40:52;50.70;23.20
31379;DHT22;61664;48.112;11.662;2022-08-03T15:43:21;50.70;23.40
31379;DHT22;61664;48.112;11.662;2022-08-03T15:45:49;50.70;23.50
31379;DHT22;61664;48.112;11.662;2022-08-03T15:48:36;50.70;23.30
31379;DHT22;61664;48.112;11.662;2022-08-03T15:51:03;50.50;23.00
31379;DHT22;61664;48.112;11.662;2022-08-03T15:53:31;50.30;22.90
31379;DHT22;61664;48.112;11.662;2022-08-03T15:56:00;50.20;22.80
31379;DHT22;61664;48.112;11.662;2022-08-03T15:58:33;50.00;23.00
31379;DHT22;61664;48.112;11.662;2022-08-03T16:01:20;49.80;22.70
31379;DHT22;61664;48.112;11.662;2022-08-03T16:03:47;49.70;22.80
31379;DHT22;61664;48.112;11.662;2022-08-03T16:06:14;49.50;22.80
31379;DHT22;61664;48.112;11.662;2022-08-03T16:08:41;49.50;22.90
31379;DHT22;61664;48.112;11.662;2022-08-03T16:11:09;49.40;22.80
31379;DHT22;61664;48.112;11.662;2022-08-03T16:13:36;49.30;22.60
31379;DHT22;61664;48.112;11.662;2022-08-03T16:16:23;49.30;22.80
31379;DHT22;61664;48.112;11.662;2022-08-03T16:18:50;49.10;22.80